createdAt,value
2022-10-05T00:02:22.995Z,100829.40
2022-10-05T00:07:26.115Z,100843.00
2022-10-05T00:12:30.175Z,100833.00
2022-10-05T00:17:33.251Z,100835.20
2022-10-05T00:22:36.574Z,100842.20
2022-10-05T00:27:39.869Z,100829.20
2022-10-05T00:32:44.719Z,100825.80
2022-10-05T00:37:54.594Z,100827.40
2022-10-05T00:43:20.319Z,100824.20
2022-10-05T00:48:39.397Z,100824.20
2022-10-05T00:53:48.467Z,100823.80
2022-10-05T00:59:29.437Z,100821.20
2022-10-05T01:04:54.284Z,100800.20
2022-10-05T01:10:24.824Z,100795.60
2022-10-05T01:15:52.082Z,100793.60
2022-10-05T01:21:10.950Z,100793.80
2022-10-05T01:26:29.217Z,100777.80
2022-10-05T01:31:49.465Z,100773.60
2022-10-05T01:37:22.325Z,100773.60
2022-10-05T01:42:49.290Z,100784.60
2022-10-05T01:48:17.081Z,100792.00
2022-10-05T01:54:03.629Z,100791.00
2022-10-05T01:59:49.009Z,100791.00
2022-10-05T02:05:04.809Z,100780.40
2022-10-05T02:10:28.988Z,100774.40
2022-10-05T02:15:48.831Z,100770.20
2022-10-05T02:20:55.899Z,100761.20
2022-10-05T02:26:01.355Z,100751.20
2022-10-05T02:31:14.877Z,100748.40
2022-10-05T02:36:29.382Z,100755.00
2022-10-05T02:42:21.130Z,100751.60
2022-10-05T02:47:47.382Z,100737.60
2022-10-05T02:53:23.866Z,100749.00
2022-10-05T02:58:46.225Z,100756.80
2022-10-05T03:04:22.323Z,100753.80
2022-10-05T03:09:36.468Z,100745.80
2022-10-05T03:14:53.809Z,100758.60
2022-10-05T03:20:40.687Z,100753.00
2022-10-05T03:26:30.032Z,100747.60
2022-10-05T03:31:56.381Z,100746.20
2022-10-05T03:37:21.708Z,100735.40
2022-10-05T03:42:58.574Z,100742.80
2022-10-05T03:48:32.435Z,100732.60
2022-10-05T03:53:53.356Z,100728.60
2022-10-05T03:59:10.498Z,100726.60
2022-10-05T04:04:26.910Z,100729.20
2022-10-05T04:09:46.947Z,100730.20
2022-10-05T04:15:03.838Z,100712.80
2022-10-05T04:20:31.218Z,100717.40
2022-10-05T04:25:53.283Z,100719.20
2022-10-05T04:30:56.533Z,100719.00
2022-10-05T04:36:22.724Z,100714.20
2022-10-05T04:42:24.619Z,100713.00
2022-10-05T04:48:08.595Z,100711.20
2022-10-05T04:53:43.854Z,100715.00
2022-10-05T04:59:17.874Z,100708.40
2022-10-05T05:05:14.836Z,100704.80
2022-10-05T05:10:52.836Z,100699.60
2022-10-05T05:16:31.574Z,100698.80
2022-10-05T05:22:02.075Z,100691.20
2022-10-05T05:27:29.942Z,100707.20
2022-10-05T05:33:19.762Z,100703.80
2022-10-05T05:38:42.532Z,100695.80
2022-10-05T05:43:57.696Z,100696.20
2022-10-05T05:49:15.142Z,100700.00
2022-10-05T05:54:39.537Z,100704.20
2022-10-05T06:00:14.186Z,100709.40
2022-10-05T06:05:38.479Z,100711.20
2022-10-05T06:10:53.163Z,100713.60
2022-10-05T06:16:04.625Z,100698.00
2022-10-05T06:21:32.144Z,100684.60
2022-10-05T06:27:06.691Z,100673.00
2022-10-05T06:32:49.972Z,100666.40
2022-10-05T06:38:17.322Z,100677.00
2022-10-05T06:43:56.902Z,100669.60
2022-10-05T06:49:53.235Z,100676.80
2022-10-05T06:54:58.821Z,100676.20
2022-10-05T07:00:16.338Z,100675.80
2022-10-05T07:06:12.148Z,100668.00
2022-10-05T07:11:58.350Z,100674.20
2022-10-05T07:17:45.848Z,100654.80
2022-10-05T07:22:48.946Z,100635.20
2022-10-05T07:28:03.968Z,100644.40
2022-10-05T07:33:13.283Z,100637.20
2022-10-05T07:38:38.202Z,100634.00
2022-10-05T07:44:45.633Z,100641.20
2022-10-05T07:50:12.279Z,100650.80
2022-10-05T07:55:27.013Z,100658.20
2022-10-05T08:01:09.056Z,100646.00
2022-10-05T08:06:32.452Z,100643.80
2022-10-05T08:12:05.211Z,100634.60
2022-10-05T08:17:42.817Z,100622.00
2022-10-05T08:23:02.594Z,100628.60
2022-10-05T08:28:18.811Z,100624.40
2022-10-05T08:33:25.474Z,100647.80
2022-10-05T08:38:33.862Z,100642.80
2022-10-05T08:44:09.605Z,100652.20
2022-10-05T08:49:42.852Z,100658.20
2022-10-05T08:55:10.777Z,100652.20
2022-10-05T09:00:50.641Z,100646.00
2022-10-05T09:06:27.318Z,100648.60
2022-10-05T09:11:57.684Z,100646.80
2022-10-05T09:18:07.677Z,100632.40
2022-10-05T09:23:43.099Z,100635.40
2022-10-05T09:29:23.170Z,100617.20
2022-10-05T09:34:49.298Z,100641.00
2022-10-05T09:40:27.873Z,100643.80
2022-10-05T09:45:53.632Z,100654.80
2022-10-05T09:51:32.166Z,100658.60
2022-10-05T09:57:04.319Z,100652.20
2022-10-05T10:02:41.340Z,100647.00
2022-10-05T10:08:09.361Z,100643.80
2022-10-05T10:13:30.453Z,100645.80
2022-10-05T10:18:58.505Z,100642.40
2022-10-05T10:24:19.912Z,100636.60
2022-10-05T10:29:59.362Z,100637.40
2022-10-05T10:35:20.912Z,100652.00
2022-10-05T10:41:06.967Z,100664.60
2022-10-05T10:46:31.514Z,100654.80
2022-10-05T10:52:08.036Z,100651.40
2022-10-05T10:57:26.369Z,100645.20
2022-10-05T11:02:50.873Z,100614.60
2022-10-05T11:08:21.258Z,100615.20
2022-10-05T11:13:47.878Z,100608.40
2022-10-05T11:19:20.582Z,100594.00
2022-10-05T11:24:41.854Z,100594.00
2022-10-05T11:30:15.605Z,100597.00
2022-10-05T11:35:58.842Z,100601.00
2022-10-05T11:41:36.336Z,100599.80
2022-10-05T11:46:54.985Z,100598.20
2022-10-05T11:52:25.941Z,100597.60
2022-10-05T11:57:41.417Z,100597.00
2022-10-05T12:03:09.497Z,100595.60
2022-10-05T12:08:33.593Z,100598.60
2022-10-05T12:13:45.200Z,100595.60
2022-10-05T12:19:27.524Z,100593.80
2022-10-05T12:25:15.600Z,100591.40
2022-10-05T12:30:40.442Z,100587.40
2022-10-05T12:36:01.938Z,100590.80
2022-10-05T12:41:18.703Z,100586.00
2022-10-05T12:46:34.281Z,100592.00
2022-10-05T12:52:00.875Z,100599.80
2022-10-05T12:57:24.498Z,100592.60
2022-10-05T13:02:49.418Z,100598.20
2022-10-05T13:08:00.410Z,100596.60
2022-10-05T13:13:37.060Z,100596.40
2022-10-05T13:19:01.794Z,100591.20
2022-10-05T13:24:35.843Z,100594.00
2022-10-05T13:30:04.801Z,100585.00
2022-10-05T13:35:32.040Z,100586.80
2022-10-05T13:40:53.927Z,100590.00
2022-10-05T13:46:21.938Z,100590.80
2022-10-05T13:52:18.769Z,100592.60
2022-10-05T13:57:45.372Z,100579.20
2022-10-05T14:02:53.725Z,100594.40
2022-10-05T14:08:02.575Z,100591.80
2022-10-05T14:13:27.838Z,100584.40
2022-10-05T14:18:36.564Z,100579.00
2022-10-05T14:23:39.739Z,100577.00
2022-10-05T14:28:58.390Z,100565.80
2022-10-05T14:34:29.342Z,100562.40
2022-10-05T14:39:35.613Z,100570.20
2022-10-05T14:44:38.763Z,100579.20
2022-10-05T14:50:10.953Z,100582.60
2022-10-05T14:55:53.138Z,100582.60
2022-10-05T15:01:35.279Z,100573.80
2022-10-05T15:06:47.297Z,100569.40
2022-10-05T15:12:00.268Z,100570.60
2022-10-05T15:17:54.685Z,100577.80
2022-10-05T15:23:26.285Z,100564.60
2022-10-05T15:28:39.907Z,100573.60
2022-10-05T15:33:57.659Z,100568.60
2022-10-05T15:39:03.874Z,100562.20
2022-10-05T15:44:49.192Z,100561.20
2022-10-05T15:50:32.528Z,100569.20
2022-10-05T15:55:56.266Z,100560.00
2022-10-05T16:01:31.437Z,100559.20
2022-10-05T16:07:02.096Z,100551.80
2022-10-05T16:12:13.987Z,100557.40
2022-10-05T16:17:57.502Z,100557.80
2022-10-05T16:23:12.501Z,100554.00
2022-10-05T16:29:12.547Z,100554.80
2022-10-05T16:34:49.519Z,100558.40
2022-10-05T16:40:01.652Z,100564.00
2022-10-05T16:45:45.943Z,100562.20
2022-10-05T16:50:58.350Z,100556.40
2022-10-05T16:56:09.355Z,100557.00
2022-10-05T17:01:43.927Z,100557.40
2022-10-05T17:07:20.576Z,100561.80
2022-10-05T17:12:29.603Z,100564.40
2022-10-05T17:18:17.345Z,100563.60
2022-10-05T17:23:47.395Z,100560.40
2022-10-05T17:29:41.934Z,100558.20
2022-10-05T17:35:04.287Z,100560.20
2022-10-05T17:40:31.760Z,100551.20
2022-10-05T17:45:34.711Z,100552.40
2022-10-05T17:50:56.604Z,100546.00
2022-10-05T17:56:05.185Z,100548.20
2022-10-05T18:01:33.091Z,100534.80
2022-10-05T18:06:45.276Z,100535.20
2022-10-05T18:12:18.048Z,100531.60
2022-10-05T18:17:54.950Z,100525.40
2022-10-05T18:23:06.154Z,100531.00
2022-10-05T18:28:22.944Z,100521.20
2022-10-05T18:33:57.809Z,100519.20
2022-10-05T18:39:34.093Z,100515.20
2022-10-05T18:44:59.291Z,100510.40
2022-10-05T18:50:40.438Z,100510.20
2022-10-05T18:55:56.429Z,100511.40
2022-10-05T19:01:28.233Z,100510.40
2022-10-05T19:06:59.016Z,100501.80
2022-10-05T19:12:26.146Z,100499.40
2022-10-05T19:18:23.164Z,100500.20
2022-10-05T19:24:12.165Z,100499.60
2022-10-05T19:29:36.843Z,100498.80
2022-10-05T19:35:06.223Z,100493.60
2022-10-05T19:40:43.189Z,100487.60
2022-10-05T19:46:31.130Z,100486.00
2022-10-05T19:51:50.881Z,100495.40
2022-10-05T19:56:55.801Z,100493.80
2022-10-05T20:02:00.018Z,100501.40
2022-10-05T20:07:04.857Z,100501.80
2022-10-05T20:12:08.034Z,100505.80
2022-10-05T20:17:55.769Z,100506.20
2022-10-05T20:23:28.195Z,100511.80
2022-10-05T20:28:32.862Z,100513.40
2022-10-05T20:33:36.218Z,100516.40
2022-10-05T20:38:41.223Z,100514.00
2022-10-05T20:43:44.549Z,100513.00
2022-10-05T20:48:47.610Z,100509.80
2022-10-05T20:53:50.624Z,100502.00
2022-10-05T20:58:53.707Z,100501.80
2022-10-05T21:03:56.899Z,100503.00
2022-10-05T21:08:59.972Z,100496.00
2022-10-05T21:14:05.672Z,100499.80
2022-10-05T21:19:14.301Z,100500.00
2022-10-05T21:24:18.055Z,100504.20
2022-10-05T21:29:21.239Z,100503.40
2022-10-05T21:34:24.383Z,100500.60
2022-10-05T21:39:27.485Z,100496.40
2022-10-05T21:44:30.604Z,100494.20
2022-10-05T21:49:34.379Z,100490.40
2022-10-05T21:54:37.586Z,100491.20
2022-10-05T21:59:40.943Z,100494.40
2022-10-05T22:04:44.008Z,100492.20
2022-10-05T22:09:51.839Z,100489.80
2022-10-05T22:14:54.927Z,100491.60
2022-10-05T22:20:01.773Z,100487.80
2022-10-05T22:25:05.542Z,100494.40
2022-10-05T22:30:09.650Z,100494.40
2022-10-05T22:35:12.784Z,100491.40
2022-10-05T22:40:15.990Z,100496.40
2022-10-05T22:45:19.501Z,100492.60
2022-10-05T22:50:22.713Z,100493.60
2022-10-05T22:55:27.967Z,100496.00
2022-10-05T23:00:53.327Z,100496.60
2022-10-05T23:06:04.545Z,100498.80
2022-10-05T23:11:13.265Z,100500.80
2022-10-05T23:16:21.438Z,100492.80
2022-10-05T23:21:28.566Z,100493.00
2022-10-05T23:26:32.453Z,100491.80
2022-10-05T23:31:37.119Z,100491.20
2022-10-05T23:36:40.131Z,100495.80
2022-10-05T23:41:44.347Z,100488.20
2022-10-05T23:46:47.770Z,100485.00
2022-10-05T23:51:50.902Z,100489.00
2022-10-05T23:56:53.983Z,100486.80
